sensor_id;sensor_type;location;lat;lon;timestamp;temperature;humidity
24645;DHT22;12780;45.502;9.146;2022-11-11T00:01:02;13.00;99.90
24645;DHT22;12780;45.502;9.146;2022-11-11T00:03:29;13.00;99.90
24645;DHT22;12780;45.502;9.146;2022-11-11T00:06:00;13.00;99.90
24645;DHT22;12780;45.502;9.146;2022-11-11T00:08:26;13.00;99.90
24645;DHT22;12780;45.502;9.146;2022-11-11T00:10:52;13.00;99.90
24645;DHT22;12780;45.502;9.146;2022-11-11T00:13:17;13.00;99.90
24645;DHT22;12780;45.502;9.146;2022-11-11T00:15:43;12.90;99.90
24645;DHT22;12780;45.502;9.146;2022-11-11T00:18:10;12.90;99.90
24645;DHT22;12780;45.502;9.146;2022-11-11T00:21:13;12.90;99.90
24645;DHT22;12780;45.502;9.146;2022-11-11T00:23:56;12.90;99.90
24645;DHT22;12780;45.502;9.146;2022-11-11T00:26:41;12.90;99.90
24645;DHT22;12780;45.502;9.146;2022-11-11T00:29:07;13.00;99.90
24645;DHT22;12780;45.502;9.146;2022-11-11T00:31:34;12.90;99.90
24645;DHT22;12780;45.502;9.146;2022-11-11T00:34:00;12.90;99.90
24645;DHT22;12780;45.502;9.146;2022-11-11T00:36:25;12.90;99.90
24645;DHT22;12780;45.502;9.146;2022-11-11T00:38:51;12.90;99.90
24645;DHT22;12780;45.502;9.146;2022-11-11T00:41:21;12.70;99.90
24645;DHT22;12780;45.502;9.146;2022-11-11T00:43:47;12.80;99.90
24645;DHT22;12780;45.502;9.146;2022-11-11T00:46:13;12.80;99.90
24645;DHT22;12780;45.502;9.146;2022-11-11T00:48:58;12.80;99.90
24645;DHT22;12780;45.502;9.146;2022-11-11T00:51:42;12.80;99.90
24645;DHT22;12780;45.502;9.146;2022-11-11T00:54:08;12.80;99.90
24645;DHT22;12780;45.502;9.146;2022-11-11T00:56:34;12.70;99.90
24645;DHT22;12780;45.502;9.146;2022-11-11T00:59:05;12.70;99.90
24645;DHT22;12780;45.502;9.146;2022-11-11T01:01:32;12.70;99.90
24645;DHT22;12780;45.502;9.146;2022-11-11T01:03:58;12.60;99.90
24645;DHT22;12780;45.502;9.146;2022-11-11T01:06:24;12.70;99.90
24645;DHT22;12780;45.502;9.146;2022-11-11T01:08:50;12.60;99.90
24645;DHT22;12780;45.502;9.146;2022-11-11T01:11:18;12.60;99.90
24645;DHT22;12780;45.502;9.146;2022-11-11T01:13:44;12.60;99.90
24645;DHT22;12780;45.502;9.146;2022-11-11T01:16:12;12.60;99.90
24645;DHT22;12780;45.502;9.146;2022-11-11T01:18:38;12.60;99.90
24645;DHT22;12780;45.502;9.146;2022-11-11T01:21:07;12.60;99.90
24645;DHT22;12780;45.502;9.146;2022-11-11T01:23:36;12.70;99.90
24645;DHT22;12780;45.502;9.146;2022-11-11T01:26:05;12.60;99.90
24645;DHT22;12780;45.502;9.146;2022-11-11T01:28:31;12.60;99.90
24645;DHT22;12780;45.502;9.146;2022-11-11T01:31:01;12.60;99.90
24645;DHT22;12780;45.502;9.146;2022-11-11T01:33:27;12.60;99.90
24645;DHT22;12780;45.502;9.146;2022-11-11T01:35:52;12.60;99.90
24645;DHT22;12780;45.502;9.146;2022-11-11T01:38:18;12.60;99.90
24645;DHT22;12780;45.502;9.146;2022-11-11T01:40:45;12.60;99.90
24645;DHT22;12780;45.502;9.146;2022-11-11T01:45:56;12.50;99.90
24645;DHT22;12780;45.502;9.146;2022-11-11T01:51:37;12.50;99.90
24645;DHT22;12780;45.502;9.146;2022-11-11T01:54:10;12.40;99.90
24645;DHT22;12780;45.502;9.146;2022-11-11T01:56:37;12.40;99.90
24645;DHT22;12780;45.502;9.146;2022-11-11T01:59:08;12.40;99.90
24645;DHT22;12780;45.502;9.146;2022-11-11T02:01:35;12.40;99.90
24645;DHT22;12780;45.502;9.146;2022-11-11T02:04:02;12.40;99.90
24645;DHT22;12780;45.502;9.146;2022-11-11T02:06:51;12.40;99.90
24645;DHT22;12780;45.502;9.146;2022-11-11T02:09:18;12.40;99.90
24645;DHT22;12780;45.502;9.146;2022-11-11T02:11:44;12.40;99.90
24645;DHT22;12780;45.502;9.146;2022-11-11T02:14:29;12.40;99.90
24645;DHT22;12780;45.502;9.146;2022-11-11T02:17:02;12.40;99.90
24645;DHT22;12780;45.502;9.146;2022-11-11T02:20:00;12.30;99.90
24645;DHT22;12780;45.502;9.146;2022-11-11T02:25:03;12.30;99.90
24645;DHT22;12780;45.502;9.146;2022-11-11T02:27:30;12.30;99.90
24645;DHT22;12780;45.502;9.146;2022-11-11T02:29:58;12.40;99.90
24645;DHT22;12780;45.502;9.146;2022-11-11T02:32:25;12.30;99.90
24645;DHT22;12780;45.502;9.146;2022-11-11T02:34:51;12.30;99.90
24645;DHT22;12780;45.502;9.146;2022-11-11T02:37:20;12.40;99.90
24645;DHT22;12780;45.502;9.146;2022-11-11T02:39:47;12.30;99.90
24645;DHT22;12780;45.502;9.146;2022-11-11T02:42:15;12.30;99.90
24645;DHT22;12780;45.502;9.146;2022-11-11T02:44:42;12.30;99.90
24645;DHT22;12780;45.502;9.146;2022-11-11T02:47:07;12.30;99.90
24645;DHT22;12780;45.502;9.146;2022-11-11T02:49:33;12.30;99.90
24645;DHT22;12780;45.502;9.146;2022-11-11T02:51:59;12.30;99.90
24645;DHT22;12780;45.502;9.146;2022-11-11T02:54:24;12.30;99.90
24645;DHT22;12780;45.502;9.146;2022-11-11T02:56:50;12.30;99.90
24645;DHT22;12780;45.502;9.146;2022-11-11T02:59:38;12.30;99.90
24645;DHT22;12780;45.502;9.146;2022-11-11T03:02:04;12.30;99.90
24645;DHT22;12780;45.502;9.146;2022-11-11T03:04:31;12.20;99.90
24645;DHT22;12780;45.502;9.146;2022-11-11T03:06:56;12.20;99.90
24645;DHT22;12780;45.502;9.146;2022-11-11T03:09:22;12.20;99.90
24645;DHT22;12780;45.502;9.146;2022-11-11T03:11:48;12.20;99.90
24645;DHT22;12780;45.502;9.146;2022-11-11T03:14:13;12.20;99.90
24645;DHT22;12780;45.502;9.146;2022-11-11T03:16:39;12.20;99.90
24645;DHT22;12780;45.502;9.146;2022-11-11T03:19:23;12.10;99.90
24645;DHT22;12780;45.502;9.146;2022-11-11T03:21:49;12.10;99.90
24645;DHT22;12780;45.502;9.146;2022-11-11T03:24:14;12.10;99.90
24645;DHT22;12780;45.502;9.146;2022-11-11T03:26:40;12.10;99.90
24645;DHT22;12780;45.502;9.146;2022-11-11T03:29:05;12.10;99.90
24645;DHT22;12780;45.502;9.146;2022-11-11T03:31:31;12.20;99.90
24645;DHT22;12780;45.502;9.146;2022-11-11T03:33:57;12.10;99.90
24645;DHT22;12780;45.502;9.146;2022-11-11T03:36:43;12.20;99.90
24645;DHT22;12780;45.502;9.146;2022-11-11T03:39:27;12.10;99.90
24645;DHT22;12780;45.502;9.146;2022-11-11T03:41:54;12.00;99.90
24645;DHT22;12780;45.502;9.146;2022-11-11T03:44:20;12.00;99.90
24645;DHT22;12780;45.502;9.146;2022-11-11T03:46:46;12.00;99.90
24645;DHT22;12780;45.502;9.146;2022-11-11T03:49:11;12.00;99.90
24645;DHT22;12780;45.502;9.146;2022-11-11T03:51:37;12.00;99.90
24645;DHT22;12780;45.502;9.146;2022-11-11T03:54:02;11.90;99.90
24645;DHT22;12780;45.502;9.146;2022-11-11T03:56:28;11.90;99.90
24645;DHT22;12780;45.502;9.146;2022-11-11T03:58:53;12.00;99.90
24645;DHT22;12780;45.502;9.146;2022-11-11T04:01:19;11.90;99.90
24645;DHT22;12780;45.502;9.146;2022-11-11T04:04:03;11.90;99.90
24645;DHT22;12780;45.502;9.146;2022-11-11T04:06:47;11.90;99.90
24645;DHT22;12780;45.502;9.146;2022-11-11T04:09:31;11.90;99.90
24645;DHT22;12780;45.502;9.146;2022-11-11T04:12:15;11.90;99.90
24645;DHT22;12780;45.502;9.146;2022-11-11T04:14:41;11.80;99.90
24645;DHT22;12780;45.502;9.146;2022-11-11T04:17:25;11.90;99.90
24645;DHT22;12780;45.502;9.146;2022-11-11T04:19:50;11.80;99.90
24645;DHT22;12780;45.502;9.146;2022-11-11T04:22:40;11.80;99.90
24645;DHT22;12780;45.502;9.146;2022-11-11T04:25:06;11.80;99.90
24645;DHT22;12780;45.502;9.146;2022-11-11T04:27:51;11.80;99.90
24645;DHT22;12780;45.502;9.146;2022-11-11T04:30:36;11.70;99.90
24645;DHT22;12780;45.502;9.146;2022-11-11T04:33:02;11.80;99.90
24645;DHT22;12780;45.502;9.146;2022-11-11T04:35:27;11.80;99.90
24645;DHT22;12780;45.502;9.146;2022-11-11T04:37:53;11.80;99.90
24645;DHT22;12780;45.502;9.146;2022-11-11T04:40:38;11.80;99.90
24645;DHT22;12780;45.502;9.146;2022-11-11T04:43:22;11.80;99.90
24645;DHT22;12780;45.502;9.146;2022-11-11T04:45:48;11.80;99.90
24645;DHT22;12780;45.502;9.146;2022-11-11T04:48:13;11.80;99.90
24645;DHT22;12780;45.502;9.146;2022-11-11T04:50:43;11.80;99.90
24645;DHT22;12780;45.502;9.146;2022-11-11T04:53:11;11.80;99.90
24645;DHT22;12780;45.502;9.146;2022-11-11T04:55:38;11.70;99.90
24645;DHT22;12780;45.502;9.146;2022-11-11T04:58:24;11.70;99.90
24645;DHT22;12780;45.502;9.146;2022-11-11T05:00:50;11.70;99.90
24645;DHT22;12780;45.502;9.146;2022-11-11T05:03:17;11.70;99.90
24645;DHT22;12780;45.502;9.146;2022-11-11T05:06:10;11.70;99.90
24645;DHT22;12780;45.502;9.146;2022-11-11T05:08:55;11.70;99.90
24645;DHT22;12780;45.502;9.146;2022-11-11T05:11:31;11.70;99.90
24645;DHT22;12780;45.502;9.146;2022-11-11T05:13:59;11.70;99.90
24645;DHT22;12780;45.502;9.146;2022-11-11T05:16:46;11.70;99.90
24645;DHT22;12780;45.502;9.146;2022-11-11T05:19:30;11.70;99.90
24645;DHT22;12780;45.502;9.146;2022-11-11T05:22:31;11.70;99.90
24645;DHT22;12780;45.502;9.146;2022-11-11T05:24:58;11.70;99.90
24645;DHT22;12780;45.502;9.146;2022-11-11T05:27:42;11.70;99.90
24645;DHT22;12780;45.502;9.146;2022-11-11T05:30:09;11.70;99.90
24645;DHT22;12780;45.502;9.146;2022-11-11T05:32:36;11.70;99.90
24645;DHT22;12780;45.502;9.146;2022-11-11T05:35:02;11.70;99.90
24645;DHT22;12780;45.502;9.146;2022-11-11T05:37:27;11.70;99.90
24645;DHT22;12780;45.502;9.146;2022-11-11T05:39:53;11.70;99.90
24645;DHT22;12780;45.502;9.146;2022-11-11T05:42:19;11.60;99.90
24645;DHT22;12780;45.502;9.146;2022-11-11T05:44:44;11.60;99.90
24645;DHT22;12780;45.502;9.146;2022-11-11T05:47:10;11.60;99.90
24645;DHT22;12780;45.502;9.146;2022-11-11T05:49:36;11.60;99.90
24645;DHT22;12780;45.502;9.146;2022-11-11T05:52:02;11.60;99.90
24645;DHT22;12780;45.502;9.146;2022-11-11T05:54:28;11.60;99.90
24645;DHT22;12780;45.502;9.146;2022-11-11T05:56:53;11.50;99.90
24645;DHT22;12780;45.502;9.146;2022-11-11T05:59:19;11.60;99.90
24645;DHT22;12780;45.502;9.146;2022-11-11T06:01:45;11.60;99.90
24645;DHT22;12780;45.502;9.146;2022-11-11T06:04:10;11.70;99.90
24645;DHT22;12780;45.502;9.146;2022-11-11T06:06:36;11.60;99.90
24645;DHT22;12780;45.502;9.146;2022-11-11T06:09:02;11.60;99.90
24645;DHT22;12780;45.502;9.146;2022-11-11T06:11:28;11.60;99.90
24645;DHT22;12780;45.502;9.146;2022-11-11T06:13:54;11.60;99.90
24645;DHT22;12780;45.502;9.146;2022-11-11T06:16:20;11.60;99.90
24645;DHT22;12780;45.502;9.146;2022-11-11T06:18:46;11.60;99.90
24645;DHT22;12780;45.502;9.146;2022-11-11T06:21:12;11.50;99.90
24645;DHT22;12780;45.502;9.146;2022-11-11T06:23:37;11.60;99.90
24645;DHT22;12780;45.502;9.146;2022-11-11T06:26:03;11.60;99.90
24645;DHT22;12780;45.502;9.146;2022-11-11T06:28:51;11.60;99.90
24645;DHT22;12780;45.502;9.146;2022-11-11T06:31:19;11.50;99.90
24645;DHT22;12780;45.502;9.146;2022-11-11T06:33:45;11.50;99.90
24645;DHT22;12780;45.502;9.146;2022-11-11T06:36:12;11.50;99.90
24645;DHT22;12780;45.502;9.146;2022-11-11T06:38:41;11.60;99.90
24645;DHT22;12780;45.502;9.146;2022-11-11T06:41:08;11.50;99.90
24645;DHT22;12780;45.502;9.146;2022-11-11T06:43:34;11.60;99.90
24645;DHT22;12780;45.502;9.146;2022-11-11T06:46:00;11.60;99.90
24645;DHT22;12780;45.502;9.146;2022-11-11T06:48:27;11.60;99.90
24645;DHT22;12780;45.502;9.146;2022-11-11T06:50:54;11.50;99.90
24645;DHT22;12780;45.502;9.146;2022-11-11T06:53:21;11.60;99.90
24645;DHT22;12780;45.502;9.146;2022-11-11T06:55:46;11.60;99.90
24645;DHT22;12780;45.502;9.146;2022-11-11T06:58:14;11.60;99.90
24645;DHT22;12780;45.502;9.146;2022-11-11T07:00:44;11.60;99.90
24645;DHT22;12780;45.502;9.146;2022-11-11T07:03:13;11.60;99.90
24645;DHT22;12780;45.502;9.146;2022-11-11T07:05:39;11.70;99.90
24645;DHT22;12780;45.502;9.146;2022-11-11T07:08:08;11.80;99.90
24645;DHT22;12780;45.502;9.146;2022-11-11T07:10:36;11.70;99.90
24645;DHT22;12780;45.502;9.146;2022-11-11T07:13:03;11.80;99.90
24645;DHT22;12780;45.502;9.146;2022-11-11T07:15:29;11.70;99.90
24645;DHT22;12780;45.502;9.146;2022-11-11T07:17:55;11.80;99.90
24645;DHT22;12780;45.502;9.146;2022-11-11T07:20:21;11.80;99.90
24645;DHT22;12780;45.502;9.146;2022-11-11T07:22:47;11.90;99.90
24645;DHT22;12780;45.502;9.146;2022-11-11T07:25:13;11.90;99.90
24645;DHT22;12780;45.502;9.146;2022-11-11T07:27:41;12.00;99.90
24645;DHT22;12780;45.502;9.146;2022-11-11T07:30:08;12.10;99.90
24645;DHT22;12780;45.502;9.146;2022-11-11T07:32:34;12.10;99.90
24645;DHT22;12780;45.502;9.146;2022-11-11T07:34:59;12.10;99.90
24645;DHT22;12780;45.502;9.146;2022-11-11T07:37:26;12.20;99.90
24645;DHT22;12780;45.502;9.146;2022-11-11T07:39:51;12.30;99.90
24645;DHT22;12780;45.502;9.146;2022-11-11T07:42:17;12.30;99.90
24645;DHT22;12780;45.502;9.146;2022-11-11T07:44:42;12.40;99.90
24645;DHT22;12780;45.502;9.146;2022-11-11T07:47:08;12.40;99.90
24645;DHT22;12780;45.502;9.146;2022-11-11T07:49:33;12.60;99.90
24645;DHT22;12780;45.502;9.146;2022-11-11T07:51:59;12.60;99.90
24645;DHT22;12780;45.502;9.146;2022-11-11T07:54:25;12.60;99.90
24645;DHT22;12780;45.502;9.146;2022-11-11T07:56:50;12.70;99.90
24645;DHT22;12780;45.502;9.146;2022-11-11T07:59:16;12.70;99.90
24645;DHT22;12780;45.502;9.146;2022-11-11T08:01:42;12.70;99.90
24645;DHT22;12780;45.502;9.146;2022-11-11T08:04:07;12.80;99.90
24645;DHT22;12780;45.502;9.146;2022-11-11T08:06:33;12.90;99.90
24645;DHT22;12780;45.502;9.146;2022-11-11T08:08:59;12.90;99.90
24645;DHT22;12780;45.502;9.146;2022-11-11T08:11:24;13.00;99.90
24645;DHT22;12780;45.502;9.146;2022-11-11T08:14:08;13.10;99.90
24645;DHT22;12780;45.502;9.146;2022-11-11T08:16:34;13.10;99.90
24645;DHT22;12780;45.502;9.146;2022-11-11T08:19:00;13.10;99.90
24645;DHT22;12780;45.502;9.146;2022-11-11T08:21:26;13.20;99.90
24645;DHT22;12780;45.502;9.146;2022-11-11T08:23:52;13.30;99.90
24645;DHT22;12780;45.502;9.146;2022-11-11T08:26:18;13.40;99.90
24645;DHT22;12780;45.502;9.146;2022-11-11T08:28:45;13.40;99.90
24645;DHT22;12780;45.502;9.146;2022-11-11T08:31:10;13.50;99.90
24645;DHT22;12780;45.502;9.146;2022-11-11T08:33:36;13.50;99.90
24645;DHT22;12780;45.502;9.146;2022-11-11T08:36:03;13.50;99.90
24645;DHT22;12780;45.502;9.146;2022-11-11T08:38:29;13.60;99.90
24645;DHT22;12780;45.502;9.146;2022-11-11T08:40:59;13.70;99.90
24645;DHT22;12780;45.502;9.146;2022-11-11T08:43:24;13.70;99.90
24645;DHT22;12780;45.502;9.146;2022-11-11T08:45:53;13.80;99.90
24645;DHT22;12780;45.502;9.146;2022-11-11T08:48:19;13.90;99.90
24645;DHT22;12780;45.502;9.146;2022-11-11T08:50:45;13.90;99.90
24645;DHT22;12780;45.502;9.146;2022-11-11T08:53:10;14.10;99.90
24645;DHT22;12780;45.502;9.146;2022-11-11T08:55:36;14.30;99.90
24645;DHT22;12780;45.502;9.146;2022-11-11T08:58:04;14.20;99.90
24645;DHT22;12780;45.502;9.146;2022-11-11T09:00:31;14.30;99.90
24645;DHT22;12780;45.502;9.146;2022-11-11T09:03:01;14.30;99.90
24645;DHT22;12780;45.502;9.146;2022-11-11T09:05:27;14.30;99.90
24645;DHT22;12780;45.502;9.146;2022-11-11T09:07:53;14.40;99.90
24645;DHT22;12780;45.502;9.146;2022-11-11T09:10:18;14.60;99.90
24645;DHT22;12780;45.502;9.146;2022-11-11T09:12:44;14.60;99.90
24645;DHT22;12780;45.502;9.146;2022-11-11T09:15:10;14.60;99.90
24645;DHT22;12780;45.502;9.146;2022-11-11T09:17:35;14.70;99.90
24645;DHT22;12780;45.502;9.146;2022-11-11T09:20:01;14.70;99.90
24645;DHT22;12780;45.502;9.146;2022-11-11T09:22:26;14.80;99.90
24645;DHT22;12780;45.502;9.146;2022-11-11T09:24:52;14.90;99.90
24645;DHT22;12780;45.502;9.146;2022-11-11T09:27:17;14.80;99.90
24645;DHT22;12780;45.502;9.146;2022-11-11T09:29:43;14.90;99.90
24645;DHT22;12780;45.502;9.146;2022-11-11T09:32:08;14.90;99.90
24645;DHT22;12780;45.502;9.146;2022-11-11T09:34:34;14.90;99.90
24645;DHT22;12780;45.502;9.146;2022-11-11T09:36:59;15.00;99.90
24645;DHT22;12780;45.502;9.146;2022-11-11T09:39:25;15.00;99.90
24645;DHT22;12780;45.502;9.146;2022-11-11T09:41:56;15.00;99.90
24645;DHT22;12780;45.502;9.146;2022-11-11T09:47:30;15.10;99.90
24645;DHT22;12780;45.502;9.146;2022-11-11T09:50:13;15.20;99.90
24645;DHT22;12780;45.502;9.146;2022-11-11T09:52:53;15.30;99.90
24645;DHT22;12780;45.502;9.146;2022-11-11T09:58:21;15.40;99.90
24645;DHT22;12780;45.502;9.146;2022-11-11T10:01:00;15.40;99.90
24645;DHT22;12780;45.502;9.146;2022-11-11T10:03:28;15.50;99.90
24645;DHT22;12780;45.502;9.146;2022-11-11T10:06:27;15.40;99.90
24645;DHT22;12780;45.502;9.146;2022-11-11T10:09:05;15.50;99.90
24645;DHT22;12780;45.502;9.146;2022-11-11T10:12:11;15.50;99.90
24645;DHT22;12780;45.502;9.146;2022-11-11T10:14:41;15.60;99.90
24645;DHT22;12780;45.502;9.146;2022-11-11T10:17:36;15.70;99.90
24645;DHT22;12780;45.502;9.146;2022-11-11T10:20:11;15.80;99.90
24645;DHT22;12780;45.502;9.146;2022-11-11T10:22:40;15.80;99.90
24645;DHT22;12780;45.502;9.146;2022-11-11T10:27:39;15.90;99.90
24645;DHT22;12780;45.502;9.146;2022-11-11T10:30:34;15.90;99.90
24645;DHT22;12780;45.502;9.146;2022-11-11T10:35:43;16.10;99.90
24645;DHT22;12780;45.502;9.146;2022-11-11T10:40:47;16.20;99.90
24645;DHT22;12780;45.502;9.146;2022-11-11T10:43:25;16.30;99.90
24645;DHT22;12780;45.502;9.146;2022-11-11T10:48:36;16.40;99.90
24645;DHT22;12780;45.502;9.146;2022-11-11T10:51:04;16.50;99.90
24645;DHT22;12780;45.502;9.146;2022-11-11T11:01:29;16.70;99.90
24645;DHT22;12780;45.502;9.146;2022-11-11T11:04:04;16.70;99.90
24645;DHT22;12780;45.502;9.146;2022-11-11T11:06:36;16.90;99.90
24645;DHT22;12780;45.502;9.146;2022-11-11T11:09:21;17.10;99.90
24645;DHT22;12780;45.502;9.146;2022-11-11T11:12:02;17.00;99.90
24645;DHT22;12780;45.502;9.146;2022-11-11T11:14:38;17.10;99.90
24645;DHT22;12780;45.502;9.146;2022-11-11T11:17:14;17.10;99.90
24645;DHT22;12780;45.502;9.146;2022-11-11T11:19:41;17.20;99.90
24645;DHT22;12780;45.502;9.146;2022-11-11T11:22:06;17.30;99.90
24645;DHT22;12780;45.502;9.146;2022-11-11T11:24:34;17.30;99.90
24645;DHT22;12780;45.502;9.146;2022-11-11T11:27:04;17.40;99.90
24645;DHT22;12780;45.502;9.146;2022-11-11T11:29:37;17.40;99.90
24645;DHT22;12780;45.502;9.146;2022-11-11T11:32:20;17.50;99.90
24645;DHT22;12780;45.502;9.146;2022-11-11T11:34:48;17.50;99.90
24645;DHT22;12780;45.502;9.146;2022-11-11T11:37:15;17.60;99.90
24645;DHT22;12780;45.502;9.146;2022-11-11T11:39:41;17.60;99.90
24645;DHT22;12780;45.502;9.146;2022-11-11T11:42:07;17.70;99.90
24645;DHT22;12780;45.502;9.146;2022-11-11T11:44:38;17.70;99.90
24645;DHT22;12780;45.502;9.146;2022-11-11T11:55:23;17.70;99.90
24645;DHT22;12780;45.502;9.146;2022-11-11T11:58:05;17.80;99.90
24645;DHT22;12780;45.502;9.146;2022-11-11T12:01:06;17.80;99.90
24645;DHT22;12780;45.502;9.146;2022-11-11T12:11:41;17.90;99.90
24645;DHT22;12780;45.502;9.146;2022-11-11T12:20:15;17.80;99.90
24645;DHT22;12780;45.502;9.146;2022-11-11T12:22:51;17.80;99.90
24645;DHT22;12780;45.502;9.146;2022-11-11T12:33:53;17.80;99.90
24645;DHT22;12780;45.502;9.146;2022-11-11T12:42:07;18.00;99.90
24645;DHT22;12780;45.502;9.146;2022-11-11T12:47:39;18.10;99.90
24645;DHT22;12780;45.502;9.146;2022-11-11T12:50:10;18.10;99.90
24645;DHT22;12780;45.502;9.146;2022-11-11T12:53:04;18.10;99.90
24645;DHT22;12780;45.502;9.146;2022-11-11T12:55:46;18.10;99.90
24645;DHT22;12780;45.502;9.146;2022-11-11T13:10:04;18.10;99.90
24645;DHT22;12780;45.502;9.146;2022-11-11T13:12:56;18.00;99.90
24645;DHT22;12780;45.502;9.146;2022-11-11T13:15:24;18.10;99.90
24645;DHT22;12780;45.502;9.146;2022-11-11T13:17:50;18.00;99.90
24645;DHT22;12780;45.502;9.146;2022-11-11T13:20:39;18.00;99.90
24645;DHT22;12780;45.502;9.146;2022-11-11T13:23:09;18.00;99.90
24645;DHT22;12780;45.502;9.146;2022-11-11T13:25:38;17.90;99.90
24645;DHT22;12780;45.502;9.146;2022-11-11T13:28:31;17.90;99.90
24645;DHT22;12780;45.502;9.146;2022-11-11T13:33:51;17.80;99.90
24645;DHT22;12780;45.502;9.146;2022-11-11T13:36:20;17.80;99.90
24645;DHT22;12780;45.502;9.146;2022-11-11T13:38:47;17.80;99.90
24645;DHT22;12780;45.502;9.146;2022-11-11T13:41:29;17.80;99.90
24645;DHT22;12780;45.502;9.146;2022-11-11T13:43:58;17.80;99.90
24645;DHT22;12780;45.502;9.146;2022-11-11T13:49:02;17.90;99.90
24645;DHT22;12780;45.502;9.146;2022-11-11T13:51:41;17.90;99.90
24645;DHT22;12780;45.502;9.146;2022-11-11T13:54:21;17.80;99.90
24645;DHT22;12780;45.502;9.146;2022-11-11T13:56:47;17.80;99.90
24645;DHT22;12780;45.502;9.146;2022-11-11T13:59:36;17.70;99.90
24645;DHT22;12780;45.502;9.146;2022-11-11T14:13:34;17.70;99.90
24645;DHT22;12780;45.502;9.146;2022-11-11T14:16:00;17.70;99.90
24645;DHT22;12780;45.502;9.146;2022-11-11T14:20:52;17.70;99.90
24645;DHT22;12780;45.502;9.146;2022-11-11T14:23:51;17.70;99.90
24645;DHT22;12780;45.502;9.146;2022-11-11T14:34:02;17.60;99.90
24645;DHT22;12780;45.502;9.146;2022-11-11T14:36:36;17.50;99.90
24645;DHT22;12780;45.502;9.146;2022-11-11T14:45:04;17.40;
24645;DHT22;12780;45.502;9.146;2022-11-11T14:47:49;17.50;99.90
24645;DHT22;12780;45.502;9.146;2022-11-11T14:53:18;17.50;99.90
24645;DHT22;12780;45.502;9.146;2022-11-11T14:55:51;17.40;99.90
24645;DHT22;12780;45.502;9.146;2022-11-11T14:58:19;17.30;99.90
24645;DHT22;12780;45.502;9.146;2022-11-11T15:01:09;17.30;99.90
24645;DHT22;12780;45.502;9.146;2022-11-11T15:03:38;17.30;99.90
24645;DHT22;12780;45.502;9.146;2022-11-11T15:06:16;17.20;99.90
24645;DHT22;12780;45.502;9.146;2022-11-11T15:08:49;17.20;99.90
24645;DHT22;12780;45.502;9.146;2022-11-11T15:19:49;17.00;99.90
24645;DHT22;12780;45.502;9.146;2022-11-11T15:25:13;16.90;99.90
24645;DHT22;12780;45.502;9.146;2022-11-11T15:27:55;16.80;99.90
24645;DHT22;12780;45.502;9.146;2022-11-11T15:30:53;16.80;99.90
24645;DHT22;12780;45.502;9.146;2022-11-11T15:33:42;16.80;99.90
24645;DHT22;12780;45.502;9.146;2022-11-11T15:38:55;16.60;99.90
24645;DHT22;12780;45.502;9.146;2022-11-11T15:41:24;16.70;99.90
24645;DHT22;12780;45.502;9.146;2022-11-11T15:43:51;16.60;99.90
24645;DHT22;12780;45.502;9.146;2022-11-11T15:46:26;16.50;99.90
24645;DHT22;12780;45.502;9.146;2022-11-11T15:48:53;16.50;99.90
24645;DHT22;12780;45.502;9.146;2022-11-11T15:53:47;16.30;99.90
24645;DHT22;12780;45.502;9.146;2022-11-11T15:56:30;16.30;99.90
24645;DHT22;12780;45.502;9.146;2022-11-11T15:58:56;16.20;99.90
24645;DHT22;12780;45.502;9.146;2022-11-11T16:01:27;16.20;99.90
24645;DHT22;12780;45.502;9.146;2022-11-11T16:03:53;16.20;99.90
24645;DHT22;12780;45.502;9.146;2022-11-11T16:06:19;16.20;99.90
24645;DHT22;12780;45.502;9.146;2022-11-11T16:08:47;16.10;99.90
24645;DHT22;12780;45.502;9.146;2022-11-11T16:11:15;16.10;99.90
24645;DHT22;12780;45.502;9.146;2022-11-11T16:16:23;16.00;99.90
24645;DHT22;12780;45.502;9.146;2022-11-11T16:19:03;16.00;99.90
24645;DHT22;12780;45.502;9.146;2022-11-11T16:21:47;15.90;99.90
24645;DHT22;12780;45.502;9.146;2022-11-11T16:26:49;15.90;99.90
24645;DHT22;12780;45.502;9.146;2022-11-11T16:29:15;15.90;99.90
24645;DHT22;12780;45.502;9.146;2022-11-11T16:31:43;15.80;99.90
24645;DHT22;12780;45.502;9.146;2022-11-11T16:37:06;15.80;99.90
24645;DHT22;12780;45.502;9.146;2022-11-11T16:39:33;15.80;99.90
24645;DHT22;12780;45.502;9.146;2022-11-11T16:42:42;15.70;99.90
24645;DHT22;12780;45.502;9.146;2022-11-11T16:47:42;15.70;99.90
24645;DHT22;12780;45.502;9.146;2022-11-11T16:50:23;15.70;99.90
24645;DHT22;12780;45.502;9.146;2022-11-11T16:53:00;15.60;99.90
24645;DHT22;12780;45.502;9.146;2022-11-11T16:57:59;15.60;99.90
24645;DHT22;12780;45.502;9.146;2022-11-11T17:00:26;15.60;99.90
24645;DHT22;12780;45.502;9.146;2022-11-11T17:08:42;15.50;99.90
24645;DHT22;12780;45.502;9.146;2022-11-11T17:14:02;15.40;99.90
24645;DHT22;12780;45.502;9.146;2022-11-11T17:16:28;15.40;99.90
24645;DHT22;12780;45.502;9.146;2022-11-11T17:18:54;15.40;99.90
24645;DHT22;12780;45.502;9.146;2022-11-11T17:21:19;15.40;99.90
24645;DHT22;12780;45.502;9.146;2022-11-11T17:23:45;15.30;99.90
24645;DHT22;12780;45.502;9.146;2022-11-11T17:26:10;15.30;99.90
24645;DHT22;12780;45.502;9.146;2022-11-11T17:28:36;15.30;99.90
24645;DHT22;12780;45.502;9.146;2022-11-11T17:31:07;15.30;99.90
24645;DHT22;12780;45.502;9.146;2022-11-11T17:33:33;15.20;99.90
24645;DHT22;12780;45.502;9.146;2022-11-11T17:35:59;15.20;99.90
24645;DHT22;12780;45.502;9.146;2022-11-11T17:38:26;15.20;99.90
24645;DHT22;12780;45.502;9.146;2022-11-11T17:40:52;15.20;99.90
24645;DHT22;12780;45.502;9.146;2022-11-11T17:43:18;15.20;99.90
24645;DHT22;12780;45.502;9.146;2022-11-11T17:45:44;15.20;99.90
24645;DHT22;12780;45.502;9.146;2022-11-11T17:48:10;15.20;99.90
24645;DHT22;12780;45.502;9.146;2022-11-11T17:50:37;15.10;99.90
24645;DHT22;12780;45.502;9.146;2022-11-11T17:53:04;15.00;99.90
24645;DHT22;12780;45.502;9.146;2022-11-11T17:55:30;15.10;99.90
24645;DHT22;12780;45.502;9.146;2022-11-11T17:57:57;15.10;99.90
24645;DHT22;12780;45.502;9.146;2022-11-11T18:00:23;15.10;99.90
24645;DHT22;12780;45.502;9.146;2022-11-11T18:02:49;15.10;99.90
24645;DHT22;12780;45.502;9.146;2022-11-11T18:05:14;15.10;99.90
24645;DHT22;12780;45.502;9.146;2022-11-11T18:07:40;15.00;99.90
24645;DHT22;12780;45.502;9.146;2022-11-11T18:10:07;14.90;99.90
24645;DHT22;12780;45.502;9.146;2022-11-11T18:12:33;15.00;99.90
24645;DHT22;12780;45.502;9.146;2022-11-11T18:14:58;15.00;99.90
24645;DHT22;12780;45.502;9.146;2022-11-11T18:17:24;15.00;99.90
24645;DHT22;12780;45.502;9.146;2022-11-11T18:19:49;14.90;99.90
24645;DHT22;12780;45.502;9.146;2022-11-11T18:22:15;14.90;99.90
24645;DHT22;12780;45.502;9.146;2022-11-11T18:24:41;15.00;99.90
24645;DHT22;12780;45.502;9.146;2022-11-11T18:27:06;14.90;99.90
24645;DHT22;12780;45.502;9.146;2022-11-11T18:29:32;14.80;99.90